Time;durP1;ratioP1;P1;durP2;ratioP2;P2;SDS_P1;SDS_P2;PMS_P1;PMS_P2;Temp;Humidity;BMP_temperature;BMP_pressure;BME280_temperature;BME280_humidity;BME280_pressure;Samples;Min_cycle;Max_cycle;Signal;HPM_P1;HPM_P2
2021/01/29 00:00:11;;;;;;;4.13;2.50;;;4.40;99.90;;;;;;5030863;28;20033;-69
2021/01/29 00:02:37;;;;;;;5.10;3.10;;;4.40;99.90;;;;;;5033568;28;20025;-69
2021/01/29 00:05:03;;;;;;;13.73;2.70;;;4.50;99.90;;;;;;5032782;28;20082;-69
2021/01/29 00:07:29;;;;;;;3.47;3.17;;;4.50;99.90;;;;;;5035335;28;20040;-69
2021/01/29 00:09:55;;;;;;;4.07;2.17;;;4.50;99.90;;;;;;5033716;28;20025;-69
2021/01/29 00:12:23;;;;;;;10.70;2.97;;;4.50;99.90;;;;;;5036342;28;20021;-69
2021/01/29 00:14:48;;;;;;;3.85;3.20;;;4.50;99.90;;;;;;5033908;28;20156;-69
2021/01/29 00:17:14;;;;;;;3.63;1.90;;;4.50;99.90;;;;;;5035354;28;20391;-69
2021/01/29 00:19:41;;;;;;;7.30;3.28;;;4.50;99.90;;;;;;5023041;28;20440;-69
2021/01/29 00:22:06;;;;;;;14.05;3.63;;;4.50;99.90;;;;;;5036449;28;20037;-69
2021/01/29 00:24:32;;;;;;;2.43;1.83;;;4.50;99.90;;;;;;5032847;28;20048;-69
2021/01/29 00:26:57;;;;;;;8.03;3.70;;;4.50;99.90;;;;;;5035489;28;20029;-69
2021/01/29 00:29:23;;;;;;;3.93;3.03;;;4.50;99.90;;;;;;5034747;28;20036;-69
2021/01/29 00:31:49;;;;;;;2.53;2.33;;;4.50;99.90;;;;;;5033304;28;20037;-69
2021/01/29 00:34:15;;;;;;;6.63;3.00;;;4.50;99.90;;;;;;5038541;28;20455;-69
2021/01/29 00:36:40;;;;;;;4.93;3.47;;;4.60;99.90;;;;;;5032591;28;20061;-69
2021/01/29 00:39:06;;;;;;;5.87;3.17;;;4.50;99.90;;;;;;5037299;28;20042;-69
2021/01/29 00:41:32;;;;;;;7.60;2.83;;;4.60;99.90;;;;;;5040063;28;20463;-69
2021/01/29 00:43:58;;;;;;;4.33;3.63;;;4.50;99.90;;;;;;5045961;28;20039;-69
2021/01/29 00:46:23;;;;;;;3.13;2.80;;;4.60;99.90;;;;;;5035911;28;20021;-69
2021/01/29 00:48:49;;;;;;;7.30;3.37;;;4.60;99.90;;;;;;5046158;28;20567;-69
2021/01/29 00:51:16;;;;;;;7.50;3.67;;;4.60;99.90;;;;;;5048939;28;20079;-69
2021/01/29 00:53:42;;;;;;;12.20;4.07;;;4.60;99.90;;;;;;5026045;28;20383;-69
2021/01/29 00:56:08;;;;;;;6.03;4.70;;;4.70;99.90;;;;;;5047138;28;20033;-69
2021/01/29 00:58:34;;;;;;;4.03;2.80;;;4.70;99.90;;;;;;5049884;28;20025;-69
2021/01/29 01:01:00;;;;;;;5.63;3.28;;;4.70;99.90;;;;;;5037576;28;20044;-69
2021/01/29 01:03:26;;;;;;;4.72;3.90;;;4.70;99.90;;;;;;5030038;28;20033;-69
2021/01/29 01:05:52;;;;;;;7.30;4.33;;;4.70;99.90;;;;;;5046782;28;20029;-69
2021/01/29 01:08:19;;;;;;;5.95;3.15;;;4.70;99.90;;;;;;5046385;28;20358;-69
2021/01/29 01:10:45;;;;;;;9.55;4.13;;;4.70;99.90;;;;;;5048349;28;20091;-69
2021/01/29 01:13:10;;;;;;;5.70;3.00;;;4.80;99.90;;;;;;5043051;28;20025;-69
2021/01/29 01:15:36;;;;;;;6.67;4.83;;;4.80;99.90;;;;;;5040161;28;20041;-69
2021/01/29 01:18:05;;;;;;;8.02;3.67;;;4.80;99.90;;;;;;5041559;28;20025;-69
2021/01/29 01:20:31;;;;;;;7.47;4.35;;;4.80;99.90;;;;;;5041668;28;20034;-69
2021/01/29 01:22:57;;;;;;;10.90;4.10;;;4.90;99.90;;;;;;5034480;28;20030;-69
2021/01/29 01:25:24;;;;;;;6.78;4.20;;;4.90;99.90;;;;;;5033557;28;20057;-69
2021/01/29 01:27:50;;;;;;;3.58;2.97;;;4.90;99.90;;;;;;5031762;28;20029;-69
2021/01/29 01:30:20;;;;;;;4.63;3.53;;;4.90;99.90;;;;;;5033134;28;20112;-70
2021/01/29 01:32:46;;;;;;;4.47;4.07;;;4.80;99.90;;;;;;5025415;28;20064;-69
2021/01/29 01:35:12;;;;;;;2.57;2.37;;;4.90;99.90;;;;;;5026801;28;20104;-69
2021/01/29 01:37:38;;;;;;;8.75;4.57;;;4.90;99.90;;;;;;5033006;28;20029;-69
2021/01/29 01:40:07;;;;;;;9.23;3.77;;;5.00;99.90;;;;;;5031605;28;20041;-68
2021/01/29 01:42:32;;;;;;;14.48;3.35;;;5.00;99.90;;;;;;5039719;28;20021;-69
2021/01/29 01:44:58;;;;;;;3.35;3.05;;;5.00;99.90;;;;;;5039282;28;20052;-68
2021/01/29 01:47:36;;;;;;;11.57;4.47;;;5.00;99.90;;;;;;5042612;28;20092;-69
2021/01/29 01:50:17;;;;;;;6.30;4.20;;;5.10;99.90;;;;;;5033753;28;20052;-69
2021/01/29 01:52:44;;;;;;;4.20;3.47;;;5.10;99.90;;;;;;5024020;28;20042;-69
2021/01/29 01:55:21;;;;;;;4.30;3.13;;;5.10;99.90;;;;;;5031577;28;20030;-69
2021/01/29 01:57:51;;;;;;;7.57;4.70;;;5.10;99.90;;;;;;5034686;28;20033;-69
2021/01/29 02:00:24;;;;;;;3.28;2.85;;;5.20;99.90;;;;;;5038329;28;20069;-69
2021/01/29 02:02:54;;;;;;;4.82;3.70;;;5.20;99.90;;;;;;5030321;28;20424;-68
2021/01/29 02:05:27;;;;;;;9.70;4.25;;;5.20;99.90;;;;;;5028723;28;20025;-69
2021/01/29 02:07:58;;;;;;;5.85;3.53;;;5.30;99.90;;;;;;5031369;28;21252;-69
2021/01/29 02:10:26;;;;;;;3.95;2.72;;;5.30;99.90;;;;;;5046843;28;20021;-69
2021/01/29 02:12:52;;;;;;;8.52;3.70;;;5.30;99.90;;;;;;5037151;28;20330;-69
2021/01/29 02:15:21;;;;;;;4.30;2.80;;;5.30;99.90;;;;;;5031064;28;20317;-69
2021/01/29 02:18:10;;;;;;;3.20;2.90;;;5.30;99.90;;;;;;5032456;28;20037;-69
2021/01/29 02:20:47;;;;;;;3.08;2.83;;;5.40;99.90;;;;;;5031963;28;20256;-68
2021/01/29 02:23:34;;;;;;;2.75;2.42;;;5.40;99.90;;;;;;5038235;28;20151;-69
2021/01/29 02:26:18;;;;;;;3.60;3.08;;;5.40;99.90;;;;;;5033316;28;20021;-69
2021/01/29 02:29:10;;;;;;;3.08;2.53;;;5.40;99.90;;;;;;5034059;28;20312;-69
2021/01/29 02:32:05;;;;;;;5.50;3.13;;;5.50;99.90;;;;;;5031217;28;20099;-69
2021/01/29 02:34:49;;;;;;;2.70;2.28;;;5.50;99.90;;;;;;5033130;28;20037;-69
2021/01/29 02:37:33;;;;;;;8.48;3.33;;;5.60;99.90;;;;;;5038059;28;20383;-69
2021/01/29 02:40:17;;;;;;;1.52;1.42;;;5.70;99.90;;;;;;5063248;28;20029;-69
2021/01/29 02:42:48;;;;;;;1.73;1.58;;;5.70;99.90;;;;;;5041725;28;20418;-69
2021/01/29 02:45:26;;;;;;;1.95;1.80;;;5.70;99.90;;;;;;5039107;28;20024;-69
2021/01/29 02:48:02;;;;;;;3.55;2.13;;;5.70;99.90;;;;;;5037908;28;20423;-69
2021/01/29 02:50:44;;;;;;;3.53;2.37;;;5.70;99.90;;;;;;5038143;28;20474;-69
2021/01/29 02:53:17;;;;;;;5.00;1.58;;;5.70;99.90;;;;;;5039144;28;20036;-68
2021/01/29 02:55:54;;;;;;;8.20;2.22;;;5.70;99.90;;;;;;5033003;28;20427;-69
2021/01/29 02:58:25;;;;;;;3.92;2.25;;;5.80;99.90;;;;;;5053299;28;20039;-69
2021/01/29 03:01:01;;;;;;;3.60;1.85;;;5.90;99.90;;;;;;5035104;28;20033;-69
2021/01/29 03:03:45;;;;;;;3.33;2.15;;;5.90;99.90;;;;;;5034891;28;20084;-69
2021/01/29 03:06:11;;;;;;;3.58;2.90;;;5.90;99.90;;;;;;5037461;28;20024;-69
2021/01/29 03:08:42;;;;;;;2.00;1.87;;;5.90;99.90;;;;;;5045024;28;20104;-69
2021/01/29 03:11:11;;;;;;;3.03;1.45;;;6.00;99.90;;;;;;5048936;28;20068;-69
2021/01/29 03:13:41;;;;;;;1.98;1.45;;;6.00;99.90;;;;;;5046703;28;20033;-69
2021/01/29 03:16:20;;;;;;;2.05;1.80;;;6.10;99.90;;;;;;5036787;28;20036;-69
2021/01/29 03:19:01;;;;;;;3.25;1.63;;;6.10;99.90;;;;;;5035729;28;20026;-69
2021/01/29 03:21:33;;;;;;;2.05;1.25;;;6.10;99.90;;;;;;5046708;28;20328;-69
2021/01/29 03:24:05;;;;;;;4.22;2.42;;;6.10;99.90;;;;;;5043288;28;20376;-69
2021/01/29 03:26:37;;;;;;;2.28;1.92;;;6.10;99.90;;;;;;5047788;28;20041;-69
2021/01/29 03:29:10;;;;;;;4.28;2.80;;;6.20;99.90;;;;;;5045424;28;20439;-69
2021/01/29 03:31:40;;;;;;;4.07;2.63;;;6.20;99.90;;;;;;5050677;28;20036;-69
2021/01/29 03:34:19;;;;;;;4.55;2.00;;;6.20;99.90;;;;;;5050074;28;20104;-71
2021/01/29 03:36:56;;;;;;;5.85;3.42;;;6.30;99.90;;;;;;5046647;28;20031;-69
2021/01/29 03:39:27;;;;;;;;;;;6.30;99.90;;;;;;5046119;28;20071;-69
2021/01/29 03:42:08;;;;;;;1.63;1.50;;;6.40;99.90;;;;;;5047346;28;19913;-69
2021/01/29 03:44:54;;;;;;;4.10;2.78;;;6.40;99.90;;;;;;5038489;28;20025;-69
2021/01/29 03:47:29;;;;;;;6.38;3.78;;;6.40;99.90;;;;;;5051463;28;20029;-69
2021/01/29 03:50:27;;;;;;;16.02;3.63;;;6.40;99.90;;;;;;5050336;28;20378;-69
2021/01/29 03:53:27;;;;;;;7.22;3.72;;;6.40;99.90;;;;;;5021992;28;20043;-69
2021/01/29 03:56:07;;;;;;;3.97;1.88;;;6.50;99.90;;;;;;5028120;28;20033;-69
2021/01/29 03:58:57;;;;;;;8.18;3.65;;;6.50;99.90;;;;;;5014729;28;20030;-69
2021/01/29 04:01:39;;;;;;;4.00;2.70;;;6.60;99.90;;;;;;5013309;28;20034;-69
2021/01/29 04:04:42;;;;;;;4.05;2.60;;;6.60;99.90;;;;;;4993063;28;20716;-69
2021/01/29 04:07:17;;;;;;;3.08;1.98;;;6.60;99.90;;;;;;5015347;28;20037;-69
2021/01/29 04:09:51;;;;;;;4.40;3.10;;;6.60;99.90;;;;;;5016867;28;20041;-69
2021/01/29 04:12:41;;;;;;;2.20;1.45;;;6.70;99.90;;;;;;5021756;28;20079;-69
2021/01/29 04:15:31;;;;;;;4.50;2.72;;;6.70;99.90;;;;;;5015911;28;20068;-69
2021/01/29 04:18:08;;;;;;;3.47;2.35;;;6.70;99.90;;;;;;5022043;28;20042;-69
2021/01/29 04:20:49;;;;;;;3.63;2.38;;;6.80;99.90;;;;;;5017937;28;20045;-69
2021/01/29 04:23:26;;;;;;;2.08;1.67;;;6.80;99.90;;;;;;5008578;28;20037;-69
2021/01/29 04:26:02;;;;;;;2.38;1.83;;;6.80;99.90;;;;;;4995455;28;20022;-69
2021/01/29 04:28:31;;;;;;;3.60;2.30;;;6.80;99.90;;;;;;5039986;28;20436;-69
2021/01/29 04:31:02;;;;;;;3.90;1.88;;;6.80;99.90;;;;;;5038017;28;20290;-69
2021/01/29 04:33:40;;;;;;;7.20;2.20;;;6.80;99.90;;;;;;5045440;28;20416;-69
2021/01/29 04:36:09;;;;;;;3.50;2.03;;;6.80;99.90;;;;;;5032316;28;20029;-69
2021/01/29 04:38:34;;;;;;;2.83;1.75;;;6.80;99.90;;;;;;5049784;28;20021;-69
2021/01/29 04:41:32;;;;;;;3.33;2.57;;;6.80;99.90;;;;;;5034176;28;20045;-69
2021/01/29 04:44:06;;;;;;;2.35;2.15;;;6.90;99.90;;;;;;5047866;28;20100;-69
2021/01/29 04:46:44;;;;;;;1.90;1.70;;;7.00;99.90;;;;;;5040913;28;20139;-69
2021/01/29 04:49:42;;;;;;;4.38;2.00;;;6.90;99.90;;;;;;5041802;28;20041;-69
2021/01/29 04:52:32;;;;;;;2.83;1.52;;;6.90;99.90;;;;;;5026705;28;20478;-69
2021/01/29 04:55:21;;;;;;;3.35;2.60;;;6.80;99.90;;;;;;5034040;28;20039;-69
2021/01/29 04:57:59;;;;;;;3.60;2.92;;;6.90;99.90;;;;;;5042349;28;20028;-69
2021/01/29 05:00:47;;;;;;;16.88;2.85;;;6.90;99.90;;;;;;5044115;28;20029;-68
2021/01/29 05:03:19;;;;;;;14.55;1.83;;;6.90;99.90;;;;;;5031508;28;20304;-69
2021/01/29 05:06:16;;;;;;;2.17;1.80;;;7.00;99.90;;;;;;5035189;28;20024;-69
2021/01/29 05:08:51;;;;;;;6.40;2.28;;;7.00;99.90;;;;;;5029619;28;20298;-69
2021/01/29 05:11:41;;;;;;;2.55;2.08;;;7.10;99.90;;;;;;5033810;28;20025;-69
2021/01/29 05:14:43;;;;;;;9.70;2.72;;;7.10;99.90;;;;;;5046448;28;20095;-69
2021/01/29 05:17:21;;;;;;;2.13;1.92;;;7.20;99.90;;;;;;5033730;28;20053;-69
2021/01/29 05:20:04;;;;;;;3.25;1.92;;;7.30;99.90;;;;;;5045440;28;20057;-69
2021/01/29 05:22:38;;;;;;;1.45;1.35;;;7.40;99.90;;;;;;5044072;28;20113;-69
2021/01/29 05:25:29;;;;;;;1.92;1.17;;;7.40;99.90;;;;;;5042707;28;20108;-69
2021/01/29 05:28:18;;;;;;;2.65;1.90;;;7.40;99.90;;;;;;5029723;28;20018;-69
2021/01/29 05:30:51;;;;;;;1.67;1.05;;;7.60;99.90;;;;;;5027517;28;20030;-69
2021/01/29 05:33:48;;;;;;;3.58;1.58;;;7.60;99.90;;;;;;5039461;28;20057;-69
2021/01/29 05:36:34;;;;;;;2.03;1.58;;;7.60;99.90;;;;;;5031623;28;20036;-70
2021/01/29 05:39:10;;;;;;;1.23;1.13;;;7.60;99.90;;;;;;5036090;28;20044;-69
2021/01/29 05:41:47;;;;;;;0.93;0.60;;;7.70;99.90;;;;;;5043880;28;20029;-70
2021/01/29 05:44:38;;;;;;;0.22;0.22;;;7.80;99.90;;;;;;5030970;28;20516;-68
2021/01/29 05:47:25;;;;;;;3.78;1.08;;;7.90;99.90;;;;;;5038554;28;20039;-70
2021/01/29 05:50:06;;;;;;;0.10;0.03;;;7.90;99.90;;;;;;5035436;28;20045;-68
2021/01/29 05:53:03;;;;;;;0.52;0.52;;;8.00;99.90;;;;;;5031148;28;20405;-69
2021/01/29 05:55:43;;;;;;;0.15;0.15;;;8.00;99.90;;;;;;5042151;28;20028;-69
2021/01/29 05:58:17;;;;;;;0.20;0.15;;;8.00;99.90;;;;;;5033061;28;20067;-69
2021/01/29 06:01:04;;;;;;;0.10;0.10;;;8.00;99.90;;;;;;5025400;28;20026;-70
2021/01/29 06:03:54;;;;;;;0.20;0.13;;;8.00;99.90;;;;;;5033014;28;20040;-69
2021/01/29 06:06:37;;;;;;;1.23;0.68;;;8.10;99.90;;;;;;5046318;28;20040;-70
2021/01/29 06:09:27;;;;;;;0.00;0.00;;;8.10;99.90;;;;;;5038200;28;20028;-69
2021/01/29 06:11:53;;;;;;;2.33;1.17;;;8.20;99.90;;;;;;5048273;28;20036;-69
2021/01/29 06:14:56;;;;;;;0.87;0.17;;;8.20;99.90;;;;;;5042075;28;20025;-69
2021/01/29 06:18:00;;;;;;;0.75;0.35;;;8.20;99.90;;;;;;5037933;28;20037;-69
2021/01/29 06:20:45;;;;;;;0.10;0.10;;;8.20;99.90;;;;;;5036119;28;20142;-69
2021/01/29 06:23:19;;;;;;;0.45;0.40;;;8.20;99.90;;;;;;5029001;28;20039;-68
2021/01/29 06:26:05;;;;;;;0.10;0.10;;;8.20;99.90;;;;;;5040170;28;20033;-69
2021/01/29 06:28:43;;;;;;;0.38;0.38;;;8.10;99.90;;;;;;5045597;28;20056;-69
2021/01/29 06:31:26;;;;;;;1.20;0.30;;;8.10;99.90;;;;;;5040545;28;20037;-69
2021/01/29 06:33:58;;;;;;;0.40;0.40;;;8.10;99.90;;;;;;5042918;28;20080;-68
2021/01/29 06:36:53;;;;;;;2.55;0.80;;;8.10;99.90;;;;;;5042267;28;20098;-69
2021/01/29 06:39:21;;;;;;;0.20;0.20;;;8.10;99.90;;;;;;5040290;28;20515;-68
2021/01/29 06:41:53;;;;;;;1.00;0.25;;;8.10;99.90;;;;;;5036834;28;20385;-68
2021/01/29 06:44:53;;;;;;;0.30;0.30;;;8.10;99.90;;;;;;5044233;28;20021;-68
2021/01/29 06:47:56;;;;;;;0.40;0.38;;;8.10;99.90;;;;;;5045225;28;20037;-70
2021/01/29 06:50:49;;;;;;;0.93;0.43;;;8.20;99.90;;;;;;5058071;28;20037;-70
2021/01/29 06:53:51;;;;;;;0.20;0.20;;;8.20;99.90;;;;;;5029323;28;20033;-70
2021/01/29 06:56:49;;;;;;;0.25;0.25;;;8.20;99.90;;;;;;5047304;28;20040;-69
2021/01/29 06:59:33;;;;;;;2.63;0.95;;;8.30;99.90;;;;;;5048999;28;20021;-68
2021/01/29 07:01:59;;;;;;;0.10;0.10;;;8.30;99.90;;;;;;5046507;28;20033;-69
2021/01/29 07:05:01;;;;;;;0.00;0.00;;;8.30;99.90;;;;;;5052197;28;20021;-69
2021/01/29 07:08:03;;;;;;;0.10;0.10;;;8.30;99.90;;;;;;5047343;28;20033;-70
2021/01/29 07:10:51;;;;;;;0.20;0.20;;;8.30;99.90;;;;;;5020115;28;20067;-69
2021/01/29 07:13:50;;;;;;;0.00;0.00;;;8.30;99.90;;;;;;5036401;28;20045;-68
2021/01/29 07:16:22;;;;;;;0.10;0.10;;;8.30;99.90;;;;;;5032630;28;20371;-68
2021/01/29 07:19:09;;;;;;;0.38;0.30;;;8.30;99.90;;;;;;5039538;28;20033;-69
2021/01/29 07:22:02;;;;;;;0.20;0.20;;;8.20;99.90;;;;;;5032389;28;20038;-69
2021/01/29 07:24:33;;;;;;;0.30;0.30;;;8.30;99.90;;;;;;5038172;28;20017;-70
2021/01/29 07:27:36;;;;;;;0.43;0.30;;;8.30;99.90;;;;;;5051757;28;20091;-69
2021/01/29 07:30:17;;;;;;;0.30;0.30;;;8.30;99.90;;;;;;5040902;28;20030;-69
2021/01/29 07:32:50;;;;;;;2.55;0.47;;;8.30;99.90;;;;;;5044672;28;20033;-69
2021/01/29 07:35:48;;;;;;;0.35;0.22;;;8.30;99.90;;;;;;5023419;28;20041;-70
2021/01/29 07:38:36;;;;;;;4.38;0.20;;;8.30;99.90;;;;;;5029125;28;20052;-69
2021/01/29 07:41:11;;;;;;;0.00;0.00;;;8.30;99.90;;;;;;5017205;28;20029;-69
2021/01/29 07:44:24;;;;;;;0.10;0.10;;;8.40;99.90;;;;;;5031876;28;20024;-69
2021/01/29 07:47:21;;;;;;;0.38;0.38;;;8.40;99.90;;;;;;4985712;28;20034;-69
2021/01/29 07:50:14;;;;;;;0.15;0.15;;;8.40;99.90;;;;;;4989414;28;20054;-69
2021/01/29 07:52:44;;;;;;;0.05;0.05;;;8.50;99.90;;;;;;4989773;28;20108;-69
2021/01/29 07:55:19;;;;;;;1.45;1.00;;;8.50;99.90;;;;;;4988456;28;20034;-70
2021/01/29 07:58:05;;;;;;;1.55;1.00;;;8.60;99.90;;;;;;4988291;28;20046;-69
2021/01/29 08:00:58;;;;;;;4.55;1.00;;;8.50;99.90;;;;;;4967978;28;20120;-70
2021/01/29 08:04:00;;;;;;;0.10;0.10;;;8.50;99.90;;;;;;4989240;28;20038;-69
2021/01/29 08:06:37;;;;;;;6.45;0.82;;;8.50;99.90;;;;;;4988875;28;20026;-69
2021/01/29 08:09:25;;;;;;;2.05;0.57;;;8.60;99.90;;;;;;4990143;28;20102;-70
2021/01/29 08:12:01;;;;;;;0.30;0.28;;;8.50;99.90;;;;;;4953965;28;20034;-70
2021/01/29 08:14:52;;;;;;;2.95;1.50;;;8.50;99.90;;;;;;4952043;28;20126;-69
2021/01/29 08:17:48;;;;;;;3.47;0.47;;;8.50;99.90;;;;;;4989473;28;20117;-70
2021/01/29 08:20:35;;;;;;;0.20;0.20;;;8.50;99.90;;;;;;5004056;28;20041;-69
2021/01/29 08:23:22;;;;;;;4.22;1.25;;;8.50;99.90;;;;;;5029375;28;20368;-69
2021/01/29 08:26:17;;;;;;;8.77;1.02;;;8.50;99.90;;;;;;5030176;28;20022;-70
2021/01/29 08:29:14;;;;;;;1.27;0.90;;;8.50;99.90;;;;;;5044733;28;20053;-69
2021/01/29 08:32:00;;;;;;;0.25;0.25;;;8.50;99.90;;;;;;5029210;28;20040;-69
2021/01/29 08:34:32;;;;;;;11.45;2.90;;;8.50;99.90;;;;;;5029832;28;20037;-69
2021/01/29 08:37:24;;;;;;;0.50;0.50;;;8.40;99.90;;;;;;5030388;28;20277;-69
2021/01/29 08:40:05;;;;;;;4.78;1.55;;;8.40;99.90;;;;;;5028975;28;20025;-70
2021/01/29 08:43:04;;;;;;;0.13;0.13;;;8.40;99.90;;;;;;5027543;28;20029;-70
2021/01/29 08:45:56;;;;;;;3.08;1.20;;;8.40;99.90;;;;;;5029844;28;20029;-71
2021/01/29 08:48:37;;;;;;;21.98;1.42;;;8.40;99.90;;;;;;5029232;28;20048;-70
2021/01/29 08:51:20;;;;;;;2.53;0.77;;;8.30;99.90;;;;;;5042166;28;20067;-70
2021/01/29 08:54:27;;;;;;;0.00;0.00;;;8.30;99.90;;;;;;5033143;28;20108;-70
2021/01/29 08:57:18;;;;;;;0.32;0.32;;;8.30;99.90;;;;;;5002295;28;20034;-71
2021/01/29 08:59:44;;;;;;;2.28;1.65;;;8.30;99.90;;;;;;5028136;28;20115;-70
2021/01/29 09:02:26;;;;;;;0.63;0.63;;;8.40;99.90;;;;;;5036196;28;20412;-71
2021/01/29 09:04:59;;;;;;;3.30;0.90;;;8.30;99.90;;;;;;5032143;28;20037;-70
2021/01/29 09:07:31;;;;;;;3.10;0.93;;;8.40;99.90;;;;;;5026289;28;20108;-70
2021/01/29 09:10:14;;;;;;;10.05;2.38;;;8.40;99.90;;;;;;5027808;28;20104;-72
2021/01/29 09:12:42;;;;;;;5.07;1.70;;;8.40;99.90;;;;;;5028438;28;20033;-70
2021/01/29 09:15:23;;;;;;;3.65;1.73;;;8.40;99.90;;;;;;5016957;28;20389;-71
2021/01/29 09:18:15;;;;;;;1.85;1.38;;;8.40;99.90;;;;;;5040059;28;20053;-72
2021/01/29 09:20:45;;;;;;;5.93;0.80;;;8.40;99.90;;;;;;5042102;28;20063;-71
2021/01/29 09:23:22;;;;;;;4.95;2.47;;;8.40;99.90;;;;;;5044327;28;20309;-69
2021/01/29 09:25:58;;;;;;;7.22;2.58;;;8.40;99.90;;;;;;5032167;28;20029;-71
2021/01/29 09:28:37;;;;;;;11.43;1.55;;;8.50;99.90;;;;;;5042572;28;20032;-72
2021/01/29 09:31:14;;;;;;;14.50;2.92;;;8.40;99.90;;;;;;5037682;28;20820;-71
2021/01/29 09:33:56;;;;;;;8.43;0.98;;;8.40;99.90;;;;;;5031468;28;20029;-69
2021/01/29 09:36:32;;;;;;;1.33;1.23;;;8.50;99.90;;;;;;5033748;28;20029;-71
2021/01/29 09:39:01;;;;;;;;;;;8.50;99.90;;;;;;5034212;28;20048;-70
2021/01/29 09:41:36;;;;;;;11.02;0.82;;;8.40;99.90;;;;;;5032234;28;20223;-70
2021/01/29 09:44:05;;;;;;;2.28;1.23;;;8.50;99.90;;;;;;5030181;28;20032;-70
2021/01/29 09:46:33;;;;;;;10.07;2.20;;;8.50;99.90;;;;;;5028406;28;20029;-71
2021/01/29 09:49:03;;;;;;;2.78;2.03;;;8.50;99.90;;;;;;5020521;28;20469;-72
2021/01/29 09:51:49;;;;;;;11.30;1.40;;;8.60;99.90;;;;;;5032336;28;20068;-70
2021/01/29 09:54:36;;;;;;;1.08;1.08;;;8.60;99.90;;;;;;5037721;28;20056;-71
2021/01/29 09:57:06;;;;;;;8.98;2.67;;;8.60;99.90;;;;;;5032936;28;20380;-73
2021/01/29 09:59:48;;;;;;;29.00;2.40;;;8.70;99.90;;;;;;5007523;28;20040;-70
2021/01/29 10:02:43;;;;;;;0.68;0.68;;;8.60;99.90;;;;;;5033901;28;20042;-70
2021/01/29 10:05:12;;;;;;;1.33;0.63;;;8.60;99.90;;;;;;5023107;28;20436;-72
2021/01/29 10:07:45;;;;;;;3.28;1.02;;;8.70;99.90;;;;;;5028802;28;20039;-70
2021/01/29 10:10:36;;;;;;;2.35;0.82;;;8.70;99.90;;;;;;5029995;28;20448;-71
2021/01/29 10:13:12;;;;;;;1.45;1.35;;;8.70;99.90;;;;;;5029726;28;20048;-71
2021/01/29 10:15:40;;;;;;;3.17;2.08;;;8.70;99.90;;;;;;5036736;28;20116;-70
2021/01/29 10:18:17;;;;;;;8.25;3.00;;;8.70;99.90;;;;;;5036488;28;20027;-70
2021/01/29 10:20:44;;;;;;;6.82;1.48;;;8.80;99.90;;;;;;5033216;28;20025;-70
2021/01/29 10:23:38;;;;;;;9.25;2.50;;;8.70;99.90;;;;;;5032952;28;20029;-71
2021/01/29 10:26:26;;;;;;;3.00;1.75;;;8.80;99.90;;;;;;5027624;28;20033;-70
2021/01/29 10:29:25;;;;;;;1.38;1.27;;;8.80;99.90;;;;;;5027734;28;20022;-72
2021/01/29 10:32:13;;;;;;;4.75;2.10;;;8.80;99.90;;;;;;5005917;28;20045;-72
2021/01/29 10:34:48;;;;;;;0.47;0.47;;;8.90;99.90;;;;;;5005681;28;20463;-70
2021/01/29 10:37:18;;;;;;;5.43;1.63;;;8.90;99.90;;;;;;5005170;28;20060;-70
2021/01/29 10:39:53;;;;;;;1.10;1.10;;;9.00;99.90;;;;;;5005396;28;20034;-70
2021/01/29 10:42:26;;;;;;;0.73;0.65;;;8.90;99.90;;;;;;5004452;28;20138;-70
2021/01/29 10:44:54;;;;;;;7.10;1.98;;;9.00;99.90;;;;;;4965650;28;20034;-70
2021/01/29 10:47:36;;;;;;;1.30;1.27;;;9.00;99.90;;;;;;5003465;28;20076;-70
2021/01/29 10:50:12;;;;;;;3.75;1.75;;;9.10;99.90;;;;;;5004839;28;20053;-70
2021/01/29 10:53:01;;;;;;;3.87;1.77;;;9.10;99.90;;;;;;5008641;28;20343;-71
2021/01/29 10:55:37;;;;;;;2.35;1.33;;;9.10;99.90;;;;;;5011029;28;20287;-71
2021/01/29 10:58:28;;;;;;;18.40;3.65;;;9.20;99.90;;;;;;5012905;28;20018;-70
2021/01/29 11:00:58;;;;;;;2.05;1.60;;;9.20;99.90;;;;;;5017459;28;20056;-70
2021/01/29 11:03:46;;;;;;;12.07;2.55;;;9.20;99.90;;;;;;5020383;28;20033;-71
2021/01/29 11:06:16;;;;;;;8.57;1.55;;;9.30;99.90;;;;;;5019674;28;20323;-70
2021/01/29 11:08:46;;;;;;;21.08;3.03;;;9.30;99.90;;;;;;5017342;28;20298;-70
2021/01/29 11:11:24;;;;;;;15.48;1.38;;;9.40;99.90;;;;;;5018392;28;20030;-72
2021/01/29 11:14:23;;;;;;;0.68;0.68;;;9.50;99.90;;;;;;5003754;28;20064;-71
2021/01/29 11:16:53;;;;;;;12.80;2.20;;;9.60;99.90;;;;;;5006265;28;20030;-70
2021/01/29 11:19:39;;;;;;;4.07;1.05;;;9.60;99.90;;;;;;5005968;28;20109;-70
2021/01/29 11:22:16;;;;;;;10.25;2.75;;;9.60;99.90;;;;;;5014261;28;20481;-71
2021/01/29 11:25:06;;;;;;;1.90;0.52;;;9.70;99.90;;;;;;5007440;28;20033;-70
2021/01/29 11:27:40;;;;;;;3.97;1.05;;;9.70;99.90;;;;;;5012404;28;20064;-70
2021/01/29 11:30:31;;;;;;;1.88;1.35;;;9.70;99.90;;;;;;5013637;28;20030;-69
2021/01/29 11:33:08;;;;;;;5.05;2.10;;;9.70;99.90;;;;;;5014024;28;20062;-71
2021/01/29 11:35:59;;;;;;;1.08;0.98;;;9.60;99.90;;;;;;5012150;28;20022;-73
2021/01/29 11:38:50;;;;;;;4.15;2.55;;;9.60;99.90;;;;;;5012961;28;20184;-72
2021/01/29 11:41:28;;;;;;;0.40;0.35;;;9.50;99.90;;;;;;5009802;28;20054;-70
2021/01/29 11:44:09;;;;;;;10.73;2.20;;;9.50;99.90;;;;;;5010727;28;20029;-71
2021/01/29 11:46:47;;;;;;;6.03;2.63;;;9.50;99.90;;;;;;5008144;28;20089;-71
2021/01/29 11:49:15;;;;;;;6.20;2.03;;;9.50;99.90;;;;;;5018971;28;20079;-70
2021/01/29 11:52:08;;;;;;;7.75;1.30;;;9.40;99.90;;;;;;5030269;28;20041;-70
2021/01/29 11:55:16;;;;;;;19.42;2.20;;;9.40;99.90;;;;;;5017056;28;20080;-71
2021/01/29 11:58:00;;;;;;;13.70;2.25;;;9.40;99.90;;;;;;5038365;28;20041;-71
2021/01/29 12:00:35;;;;;;;9.02;1.65;;;9.40;99.90;;;;;;5029354;28;20159;-70
2021/01/29 12:03:20;;;;;;;3.50;0.43;;;9.40;99.90;;;;;;5028215;28;20021;-71
2021/01/29 12:06:04;;;;;;;7.97;0.63;;;9.40;99.90;;;;;;5030984;28;20294;-71
2021/01/29 12:08:39;;;;;;;31.98;2.25;;;9.30;99.90;;;;;;5030881;28;20029;-71
2021/01/29 12:11:27;;;;;;;0.75;0.40;;;9.30;99.90;;;;;;5027507;28;20041;-71
2021/01/29 12:14:11;;;;;;;0.52;0.52;;;9.20;99.90;;;;;;5026677;28;20038;-72
2021/01/29 12:16:38;;;;;;;0.75;0.50;;;9.30;99.90;;;;;;5038755;28;20029;-70
2021/01/29 12:19:06;;;;;;;0.90;0.22;;;9.20;99.90;;;;;;5018242;28;20026;-70
2021/01/29 12:22:19;;;;;;;4.90;1.02;;;9.20;99.90;;;;;;5006560;28;20046;-70
2021/01/29 12:25:13;;;;;;;0.98;0.95;;;9.20;99.90;;;;;;5006048;28;20044;-72
2021/01/29 12:28:01;;;;;;;4.47;0.52;;;9.20;99.90;;;;;;5031651;28;20473;-71
2021/01/29 12:30:36;;;;;;;12.07;1.63;;;9.20;99.90;;;;;;5022380;28;20052;-70
2021/01/29 12:33:30;;;;;;;8.65;1.08;;;9.20;99.90;;;;;;5036274;28;20126;-71
2021/01/29 12:36:01;;;;;;;0.20;0.20;;;9.20;99.90;;;;;;5046377;28;20048;-71
2021/01/29 12:39:00;;;;;;;0.85;0.85;;;9.10;99.90;;;;;;5034446;28;20037;-71
2021/01/29 12:42:06;;;;;;;3.47;1.30;;;9.20;99.90;;;;;;5017408;28;20036;-70
2021/01/29 12:44:53;;;;;;;9.15;0.52;;;9.20;99.90;;;;;;5010950;28;20116;-70
2021/01/29 12:47:21;;;;;;;0.70;0.65;;;9.10;99.90;;;;;;5037453;28;20017;-70
2021/01/29 12:49:51;;;;;;;0.45;0.45;;;9.10;99.90;;;;;;5032576;28;20049;-70
2021/01/29 12:52:35;;;;;;;3.58;1.70;;;9.20;99.90;;;;;;5031846;28;20100;-71
2021/01/29 12:55:12;;;;;;;1.10;1.10;;;9.20;99.90;;;;;;5027912;28;20391;-70
2021/01/29 12:57:38;;;;;;;1.00;0.82;;;9.30;99.90;;;;;;5015301;28;20036;-71
2021/01/29 13:00:20;;;;;;;9.87;1.07;;;9.30;99.90;;;;;;5026854;28;20033;-70
2021/01/29 13:02:55;;;;;;;0.65;0.32;;;9.30;99.90;;;;;;5032153;28;20040;-71
2021/01/29 13:05:46;;;;;;;1.33;0.85;;;9.30;99.90;;;;;;5025908;28;20416;-71
2021/01/29 13:08:36;;;;;;;6.47;0.70;;;9.40;99.90;;;;;;5048632;28;20063;-70
2021/01/29 13:11:02;;;;;;;0.45;0.38;;;9.30;99.90;;;;;;5028310;28;20034;-71
2021/01/29 13:14:02;;;;;;;0.20;0.20;;;9.30;99.90;;;;;;5031109;28;20610;-71
2021/01/29 13:16:37;;;;;;;5.57;1.20;;;9.30;99.90;;;;;;5026698;28;20041;-71
2021/01/29 13:19:06;;;;;;;1.77;1.67;;;9.20;99.90;;;;;;5032331;28;20031;-70
2021/01/29 13:22:01;;;;;;;2.50;0.85;;;9.20;99.90;;;;;;5034974;28;20108;-70
2021/01/29 13:24:30;;;;;;;14.70;1.25;;;9.20;99.90;;;;;;5026018;28;20060;-71
2021/01/29 13:27:02;;;;;;;1.08;0.98;;;9.20;99.90;;;;;;5028558;28;21567;-71
2021/01/29 13:29:31;;;;;;;7.28;2.90;;;9.20;99.90;;;;;;5026656;28;20025;-70
2021/01/29 13:32:07;;;;;;;0.75;0.73;;;9.20;99.90;;;;;;5028901;28;20065;-70
2021/01/29 13:34:42;;;;;;;4.85;2.15;;;9.10;99.90;;;;;;5028038;28;20026;-70
2021/01/29 13:37:29;;;;;;;1.27;1.20;;;9.10;99.90;;;;;;5027824;28;20416;-70
2021/01/29 13:40:27;;;;;;;3.55;1.50;;;9.10;99.90;;;;;;5024552;28;20048;-71
2021/01/29 13:42:55;;;;;;;2.38;0.98;;;9.10;99.90;;;;;;5026061;28;20021;-70
2021/01/29 13:45:24;;;;;;;0.45;0.38;;;9.10;99.90;;;;;;5028606;28;20025;-70
2021/01/29 13:48:09;;;;;;;2.70;0.90;;;9.20;99.90;;;;;;5038120;28;20026;-70
2021/01/29 13:50:41;;;;;;;4.17;0.37;;;9.20;99.90;;;;;;5037846;28;20037;-71
2021/01/29 13:53:32;;;;;;;0.65;0.52;;;9.20;99.90;;;;;;5040294;28;20262;-70
2021/01/29 13:56:22;;;;;;;3.08;1.75;;;9.10;99.90;;;;;;5044981;28;20316;-71
2021/01/29 13:59:28;;;;;;;2.30;0.60;;;9.10;99.90;;;;;;5043079;28;20029;-70
2021/01/29 14:01:54;;;;;;;1.15;1.05;;;9.10;99.90;;;;;;5035104;28;20765;-69